sensor_id;sensor_type;location;lat;lon;timestamp;pressure;altitude;pressure_sealevel;temperature;humidity
36092;BME280;22147;52.388;13.390;2023-01-15T00:00:08;99201.84;;;7.13;100.00
36092;BME280;22147;52.388;13.390;2023-01-15T00:02:38;99203.00;;;7.12;100.00
36092;BME280;22147;52.388;13.390;2023-01-15T00:05:09;99200.91;;;7.09;100.00
36092;BME280;22147;52.388;13.390;2023-01-15T00:07:39;99199.56;;;7.16;100.00
36092;BME280;22147;52.388;13.390;2023-01-15T00:10:10;99204.25;;;7.03;100.00
36092;BME280;22147;52.388;13.390;2023-01-15T00:12:40;99194.66;;;7.00;100.00
36092;BME280;22147;52.388;13.390;2023-01-15T00:15:10;99189.97;;;7.13;100.00
36092;BME280;22147;52.388;13.390;2023-01-15T00:17:43;99186.28;;;7.09;100.00
36092;BME280;22147;52.388;13.390;2023-01-15T00:20:13;99199.09;;;7.26;100.00
36092;BME280;22147;52.388;13.390;2023-01-15T00:22:43;99196.06;;;7.06;100.00
36092;BME280;22147;52.388;13.390;2023-01-15T00:25:13;99196.31;;;7.26;100.00
36092;BME280;22147;52.388;13.390;2023-01-15T00:28:02;99196.31;;;7.26;100.00
36092;BME280;22147;52.388;13.390;2023-01-15T00:30:32;99191.72;;;7.30;100.00
36092;BME280;22147;52.388;13.390;2023-01-15T00:33:02;99189.56;;;7.36;100.00
36092;BME280;22147;52.388;13.390;2023-01-15T00:35:32;99177.47;;;7.40;100.00
36092;BME280;22147;52.388;13.390;2023-01-15T00:38:02;99166.09;;;7.42;100.00
36092;BME280;22147;52.388;13.390;2023-01-15T00:40:32;99159.31;;;7.39;100.00
36092;BME280;22147;52.388;13.390;2023-01-15T00:43:01;99156.19;;;7.53;100.00
36092;BME280;22147;52.388;13.390;2023-01-15T00:45:29;99148.94;;;7.48;100.00
36092;BME280;22147;52.388;13.390;2023-01-15T00:47:58;99151.94;;;7.43;100.00
36092;BME280;22147;52.388;13.390;2023-01-15T00:50:26;99137.31;;;7.43;100.00
36092;BME280;22147;52.388;13.390;2023-01-15T00:52:54;99135.59;;;7.38;100.00
36092;BME280;22147;52.388;13.390;2023-01-15T00:55:23;99143.75;;;7.47;100.00
36092;BME280;22147;52.388;13.390;2023-01-15T00:57:53;99145.59;;;7.55;100.00
36092;BME280;22147;52.388;13.390;2023-01-15T01:00:20;99144.13;;;7.45;100.00
36092;BME280;22147;52.388;13.390;2023-01-15T01:02:49;99135.34;;;7.55;100.00
36092;BME280;22147;52.388;13.390;2023-01-15T01:05:17;99114.38;;;7.79;100.00
36092;BME280;22147;52.388;13.390;2023-01-15T01:07:46;99130.84;;;7.88;100.00
36092;BME280;22147;52.388;13.390;2023-01-15T01:10:16;99129.00;;;7.67;100.00
36092;BME280;22147;52.388;13.390;2023-01-15T01:12:45;99122.44;;;7.60;100.00
36092;BME280;22147;52.388;13.390;2023-01-15T01:15:21;99118.31;;;7.66;100.00
36092;BME280;22147;52.388;13.390;2023-01-15T01:17:51;99119.69;;;7.60;100.00
36092;BME280;22147;52.388;13.390;2023-01-15T01:20:21;99105.41;;;7.70;100.00
36092;BME280;22147;52.388;13.390;2023-01-15T01:22:51;99117.94;;;7.80;100.00
36092;BME280;22147;52.388;13.390;2023-01-15T01:25:22;99111.00;;;7.98;100.00
36092;BME280;22147;52.388;13.390;2023-01-15T01:27:52;99116.56;;;7.86;100.00
36092;BME280;22147;52.388;13.390;2023-01-15T01:30:22;99131.38;;;7.93;100.00
36092;BME280;22147;52.388;13.390;2023-01-15T01:32:51;99140.72;;;7.89;100.00
36092;BME280;22147;52.388;13.390;2023-01-15T01:35:21;99128.75;;;7.85;100.00
36092;BME280;22147;52.388;13.390;2023-01-15T01:37:51;99126.81;;;7.85;100.00
36092;BME280;22147;52.388;13.390;2023-01-15T01:40:22;99127.81;;;7.93;100.00
36092;BME280;22147;52.388;13.390;2023-01-15T01:42:51;99110.19;;;7.98;100.00
36092;BME280;22147;52.388;13.390;2023-01-15T01:45:31;99104.00;;;7.88;100.00
36092;BME280;22147;52.388;13.390;2023-01-15T01:48:06;99100.66;;;7.83;100.00
36092;BME280;22147;52.388;13.390;2023-01-15T01:50:39;99103.28;;;7.91;100.00
36092;BME280;22147;52.388;13.390;2023-01-15T01:53:26;99108.25;;;7.98;100.00
36092;BME280;22147;52.388;13.390;2023-01-15T01:55:59;99112.84;;;7.94;100.00
36092;BME280;22147;52.388;13.390;2023-01-15T01:58:33;99113.47;;;7.75;100.00
36092;BME280;22147;52.388;13.390;2023-01-15T02:01:05;99107.00;;;7.83;100.00
36092;BME280;22147;52.388;13.390;2023-01-15T02:03:37;99111.81;;;7.86;100.00
36092;BME280;22147;52.388;13.390;2023-01-15T02:06:12;99109.66;;;7.80;100.00
36092;BME280;22147;52.388;13.390;2023-01-15T02:08:44;99106.31;;;7.74;100.00
36092;BME280;22147;52.388;13.390;2023-01-15T02:11:20;99110.06;;;7.53;100.00
36092;BME280;22147;52.388;13.390;2023-01-15T02:16:40;99093.34;;;7.62;100.00
36092;BME280;22147;52.388;13.390;2023-01-15T02:26:12;99103.47;;;7.58;100.00
36092;BME280;22147;52.388;13.390;2023-01-15T02:28:58;99111.53;;;7.51;100.00
36092;BME280;22147;52.388;13.390;2023-01-15T02:31:40;99100.06;;;7.37;100.00
36092;BME280;22147;52.388;13.390;2023-01-15T02:34:36;99092.19;;;7.39;100.00
36092;BME280;22147;52.388;13.390;2023-01-15T02:37:23;99098.53;;;7.39;100.00
36092;BME280;22147;52.388;13.390;2023-01-15T02:40:01;99094.16;;;7.38;100.00
36092;BME280;22147;52.388;13.390;2023-01-15T02:42:38;99085.66;;;7.31;100.00
36092;BME280;22147;52.388;13.390;2023-01-15T02:45:25;99075.63;;;7.39;100.00
36092;BME280;22147;52.388;13.390;2023-01-15T02:48:11;99072.19;;;7.29;100.00
36092;BME280;22147;52.388;13.390;2023-01-15T02:50:55;99081.84;;;7.23;100.00
36092;BME280;22147;52.388;13.390;2023-01-15T02:53:33;99076.78;;;7.13;100.00
36092;BME280;22147;52.388;13.390;2023-01-15T02:56:14;99072.88;;;7.14;100.00
36092;BME280;22147;52.388;13.390;2023-01-15T02:58:55;99077.03;;;7.08;100.00
36092;BME280;22147;52.388;13.390;2023-01-15T03:01:38;99081.75;;;7.07;100.00
36092;BME280;22147;52.388;13.390;2023-01-15T03:07:22;99074.59;;;7.19;100.00
36092;BME280;22147;52.388;13.390;2023-01-15T03:09:58;99078.53;;;7.05;100.00
36092;BME280;22147;52.388;13.390;2023-01-15T03:15:34;99065.28;;;7.11;100.00
36092;BME280;22147;52.388;13.390;2023-01-15T03:18:39;99077.13;;;7.24;100.00
36092;BME280;22147;52.388;13.390;2023-01-15T03:24:50;99066.22;;;7.03;100.00
36092;BME280;22147;52.388;13.390;2023-01-15T03:27:23;99067.69;;;7.00;100.00
36092;BME280;22147;52.388;13.390;2023-01-15T03:30:13;99065.53;;;7.18;100.00
36092;BME280;22147;52.388;13.390;2023-01-15T03:32:46;99067.03;;;7.16;100.00
36092;BME280;22147;52.388;13.390;2023-01-15T03:38:29;99054.38;;;7.14;100.00
36092;BME280;22147;52.388;13.390;2023-01-15T03:41:14;99064.03;;;7.33;100.00
36092;BME280;22147;52.388;13.390;2023-01-15T03:44:29;99066.66;;;7.29;100.00
36092;BME280;22147;52.388;13.390;2023-01-15T03:47:43;99074.16;;;7.29;100.00
36092;BME280;22147;52.388;13.390;2023-01-15T03:50:39;99073.09;;;7.21;100.00
36092;BME280;22147;52.388;13.390;2023-01-15T03:56:34;99076.78;;;7.13;100.00
36092;BME280;22147;52.388;13.390;2023-01-15T03:59:23;99084.50;;;7.07;100.00
36092;BME280;22147;52.388;13.390;2023-01-15T04:02:05;99082.09;;;7.18;100.00
36092;BME280;22147;52.388;13.390;2023-01-15T04:04:39;99080.25;;;7.10;100.00
36092;BME280;22147;52.388;13.390;2023-01-15T04:07:11;99077.81;;;7.08;100.00
36092;BME280;22147;52.388;13.390;2023-01-15T04:09:42;99078.53;;;7.05;100.00
36092;BME280;22147;52.388;13.390;2023-01-15T04:12:12;99072.44;;;7.12;100.00
36092;BME280;22147;52.388;13.390;2023-01-15T04:14:46;99080.25;;;7.22;100.00
36092;BME280;22147;52.388;13.390;2023-01-15T04:17:17;99081.84;;;7.11;100.00
36092;BME280;22147;52.388;13.390;2023-01-15T04:19:47;99092.56;;;7.12;100.00
36092;BME280;22147;52.388;13.390;2023-01-15T04:22:15;99154.44;;;7.11;100.00
36092;BME280;22147;52.388;13.390;2023-01-15T04:24:42;99161.31;;;6.93;100.00
36092;BME280;22147;52.388;13.390;2023-01-15T04:27:12;99159.88;;;6.75;100.00
36092;BME280;22147;52.388;13.390;2023-01-15T04:29:42;99173.66;;;6.75;100.00
36092;BME280;22147;52.388;13.390;2023-01-15T04:32:12;99171.50;;;6.47;100.00
36092;BME280;22147;52.388;13.390;2023-01-15T04:34:43;99170.72;;;6.25;100.00
36092;BME280;22147;52.388;13.390;2023-01-15T04:37:15;99185.97;;;6.02;100.00
36092;BME280;22147;52.388;13.390;2023-01-15T04:39:45;99187.09;;;5.71;100.00
36092;BME280;22147;52.388;13.390;2023-01-15T04:42:15;99194.66;;;5.53;100.00
36092;BME280;22147;52.388;13.390;2023-01-15T04:45:05;99216.09;;;5.39;100.00
36092;BME280;22147;52.388;13.390;2023-01-15T04:47:35;99224.09;;;5.14;100.00
36092;BME280;22147;52.388;13.390;2023-01-15T04:50:05;99232.72;;;4.95;100.00
36092;BME280;22147;52.388;13.390;2023-01-15T04:52:37;99231.31;;;4.89;100.00
36092;BME280;22147;52.388;13.390;2023-01-15T04:55:06;99235.00;;;4.84;100.00
36092;BME280;22147;52.388;13.390;2023-01-15T04:57:36;99229.50;;;4.84;100.00
36092;BME280;22147;52.388;13.390;2023-01-15T05:00:08;99228.41;;;4.77;100.00
36092;BME280;22147;52.388;13.390;2023-01-15T05:02:37;99224.38;;;4.57;100.00
36092;BME280;22147;52.388;13.390;2023-01-15T05:05:06;99236.84;;;4.45;100.00
36092;BME280;22147;52.388;13.390;2023-01-15T05:07:34;99242.66;;;4.35;100.00
36092;BME280;22147;52.388;13.390;2023-01-15T05:10:03;99252.69;;;4.57;100.00
36092;BME280;22147;52.388;13.390;2023-01-15T05:12:31;99240.25;;;4.42;100.00
36092;BME280;22147;52.388;13.390;2023-01-15T05:15:00;99237.47;;;4.34;100.00
36092;BME280;22147;52.388;13.390;2023-01-15T05:17:28;99237.16;;;4.26;100.00
36092;BME280;22147;52.388;13.390;2023-01-15T05:19:59;99240.38;;;4.20;100.00
36092;BME280;22147;52.388;13.390;2023-01-15T05:22:28;99237.47;;;4.25;100.00
36092;BME280;22147;52.388;13.390;2023-01-15T05:24:56;99243.94;;;4.46;100.00
36092;BME280;22147;52.388;13.390;2023-01-15T05:27:25;99239.72;;;4.23;100.00
36092;BME280;22147;52.388;13.390;2023-01-15T05:29:55;99245.88;;;4.20;100.00
36092;BME280;22147;52.388;13.390;2023-01-15T05:32:25;99229.69;;;4.18;100.00
36092;BME280;22147;52.388;13.390;2023-01-15T05:34:53;99245.03;;;4.11;100.00
36092;BME280;22147;52.388;13.390;2023-01-15T05:37:21;99255.56;;;4.08;100.00
36092;BME280;22147;52.388;13.390;2023-01-15T05:39:50;99255.59;;;4.26;100.00
36092;BME280;22147;52.388;13.390;2023-01-15T05:42:19;99246.19;;;4.18;100.00
36092;BME280;22147;52.388;13.390;2023-01-15T05:44:47;99229.50;;;4.06;100.00
36092;BME280;22147;52.388;13.390;2023-01-15T05:47:17;99232.59;;;4.04;100.00
36092;BME280;22147;52.388;13.390;2023-01-15T05:49:45;99230.66;;;3.96;100.00
36092;BME280;22147;52.388;13.390;2023-01-15T05:52:14;99234.53;;;4.04;100.00
36092;BME280;22147;52.388;13.390;2023-01-15T05:54:42;99245.38;;;4.09;100.00
36092;BME280;22147;52.388;13.390;2023-01-15T05:57:11;99239.41;;;4.16;100.00
36092;BME280;22147;52.388;13.390;2023-01-15T05:59:41;99238.72;;;4.10;100.00
36092;BME280;22147;52.388;13.390;2023-01-15T06:02:12;99241.97;;;4.03;100.00
36092;BME280;22147;52.388;13.390;2023-01-15T06:04:42;99228.41;;;4.07;100.00
36092;BME280;22147;52.388;13.390;2023-01-15T06:07:12;99240.19;;;4.07;100.00
36092;BME280;22147;52.388;13.390;2023-01-15T06:09:42;99242.75;;;4.04;100.00
36092;BME280;22147;52.388;13.390;2023-01-15T06:12:16;99235.34;;;4.04;100.00
36092;BME280;22147;52.388;13.390;2023-01-15T06:14:46;99228.03;;;4.00;100.00
36092;BME280;22147;52.388;13.390;2023-01-15T06:17:16;99224.50;;;3.99;100.00
36092;BME280;22147;52.388;13.390;2023-01-15T06:19:46;99235.78;;;3.98;100.00
36092;BME280;22147;52.388;13.390;2023-01-15T06:22:16;99222.72;;;3.95;100.00
36092;BME280;22147;52.388;13.390;2023-01-15T06:24:47;99232.59;;;4.04;100.00
36092;BME280;22147;52.388;13.390;2023-01-15T06:27:17;99238.72;;;4.01;100.00
36092;BME280;22147;52.388;13.390;2023-01-15T06:29:47;99227.75;;;4.19;100.00
36092;BME280;22147;52.388;13.390;2023-01-15T06:32:17;99226.63;;;4.11;100.00
36092;BME280;22147;52.388;13.390;2023-01-15T06:34:47;99232.25;;;4.06;100.00
36092;BME280;22147;52.388;13.390;2023-01-15T06:37:18;99252.47;;;4.01;100.00
36092;BME280;22147;52.388;13.390;2023-01-15T06:39:48;99247.94;;;3.97;100.00
36092;BME280;22147;52.388;13.390;2023-01-15T06:42:18;99245.19;;;3.97;100.00
36092;BME280;22147;52.388;13.390;2023-01-15T06:45:10;99251.00;;;4.04;100.00
36092;BME280;22147;52.388;13.390;2023-01-15T06:47:59;99248.72;;;3.97;100.00
36092;BME280;22147;52.388;13.390;2023-01-15T06:50:29;99249.69;;;3.93;100.00
36092;BME280;22147;52.388;13.390;2023-01-15T06:52:59;99260.03;;;3.96;100.00
36092;BME280;22147;52.388;13.390;2023-01-15T06:55:29;99249.22;;;3.91;100.00
36092;BME280;22147;52.388;13.390;2023-01-15T06:58:02;99239.38;;;4.07;100.00
36092;BME280;22147;52.388;13.390;2023-01-15T07:00:31;99255.38;;;4.05;100.00
36092;BME280;22147;52.388;13.390;2023-01-15T07:03:03;99251.34;;;4.02;100.00
36092;BME280;22147;52.388;13.390;2023-01-15T07:05:33;99250.03;;;4.00;100.00
36092;BME280;22147;52.388;13.390;2023-01-15T07:08:03;99249.41;;;4.12;100.00
36092;BME280;22147;52.388;13.390;2023-01-15T07:10:34;99254.72;;;3.99;100.00
36092;BME280;22147;52.388;13.390;2023-01-15T07:13:03;99258.13;;;3.96;100.00
36092;BME280;22147;52.388;13.390;2023-01-15T07:15:33;99266.00;;;3.89;100.00
36092;BME280;22147;52.388;13.390;2023-01-15T07:18:04;99272.28;;;3.81;100.00
36092;BME280;22147;52.388;13.390;2023-01-15T07:20:34;99277.50;;;4.00;100.00
36092;BME280;22147;52.388;13.390;2023-01-15T07:23:04;99277.66;;;3.95;100.00
36092;BME280;22147;52.388;13.390;2023-01-15T07:25:34;99272.19;;;4.03;100.00
36092;BME280;22147;52.388;13.390;2023-01-15T07:28:04;99266.66;;;3.95;100.00
36092;BME280;22147;52.388;13.390;2023-01-15T07:30:34;99265.19;;;3.88;100.00
36092;BME280;22147;52.388;13.390;2023-01-15T07:33:04;99271.16;;;3.82;100.00
36092;BME280;22147;52.388;13.390;2023-01-15T07:35:35;99269.53;;;3.81;100.00
36092;BME280;22147;52.388;13.390;2023-01-15T07:38:04;99282.31;;;3.77;100.00
36092;BME280;22147;52.388;13.390;2023-01-15T07:40:34;99287.78;;;3.77;100.00
36092;BME280;22147;52.388;13.390;2023-01-15T07:43:05;99275.19;;;3.84;100.00
36092;BME280;22147;52.388;13.390;2023-01-15T07:45:53;99269.53;;;3.81;100.00
36092;BME280;22147;52.388;13.390;2023-01-15T07:48:41;99281.69;;;3.88;100.00
36092;BME280;22147;52.388;13.390;2023-01-15T07:51:30;99291.88;;;3.97;100.00
36092;BME280;22147;52.388;13.390;2023-01-15T07:54:00;99289.59;;;3.90;100.00
36092;BME280;22147;52.388;13.390;2023-01-15T07:56:30;99303.81;;;3.83;100.00
36092;BME280;22147;52.388;13.390;2023-01-15T07:59:00;99301.41;;;3.91;100.00
36092;BME280;22147;52.388;13.390;2023-01-15T08:01:28;99301.56;;;3.94;100.00
36092;BME280;22147;52.388;13.390;2023-01-15T08:03:57;99311.88;;;3.88;100.00
36092;BME280;22147;52.388;13.390;2023-01-15T08:06:25;99307.38;;;3.93;100.00
36092;BME280;22147;52.388;13.390;2023-01-15T08:08:54;99315.97;;;4.00;100.00
36092;BME280;22147;52.388;13.390;2023-01-15T08:11:22;99308.47;;;3.83;100.00
36092;BME280;22147;52.388;13.390;2023-01-15T08:14:11;99304.78;;;3.87;100.00
36092;BME280;22147;52.388;13.390;2023-01-15T08:16:59;99278.44;;;3.86;100.00
36092;BME280;22147;52.388;13.390;2023-01-15T08:19:30;99276.06;;;3.94;100.00
36092;BME280;22147;52.388;13.390;2023-01-15T08:22:00;99284.41;;;3.88;100.00
36092;BME280;22147;52.388;13.390;2023-01-15T08:24:30;99290.31;;;4.13;100.00
36092;BME280;22147;52.388;13.390;2023-01-15T08:27:00;99296.78;;;4.17;100.00
36092;BME280;22147;52.388;13.390;2023-01-15T08:29:30;99289.34;;;4.18;100.00
36092;BME280;22147;52.388;13.390;2023-01-15T08:32:00;99287.88;;;4.12;100.00
36092;BME280;22147;52.388;13.390;2023-01-15T08:34:31;99298.28;;;4.32;100.00
36092;BME280;22147;52.388;13.390;2023-01-15T08:37:01;99294.88;;;4.35;100.00
36092;BME280;22147;52.388;13.390;2023-01-15T08:39:31;99297.94;;;4.34;100.00
36092;BME280;22147;52.388;13.390;2023-01-15T08:42:01;99291.13;;;4.14;100.00
36092;BME280;22147;52.388;13.390;2023-01-15T08:44:31;99292.41;;;4.16;100.00
36092;BME280;22147;52.388;13.390;2023-01-15T08:47:01;99300.84;;;4.20;100.00
36092;BME280;22147;52.388;13.390;2023-01-15T08:49:32;99296.44;;;4.19;100.00
36092;BME280;22147;52.388;13.390;2023-01-15T08:52:02;99307.59;;;4.14;100.00
36092;BME280;22147;52.388;13.390;2023-01-15T08:54:32;99296.09;;;4.03;100.00
36092;BME280;22147;52.388;13.390;2023-01-15T08:57:02;99294.53;;;4.28;100.00
36092;BME280;22147;52.388;13.390;2023-01-15T08:59:32;99301.00;;;4.23;100.00
36092;BME280;22147;52.388;13.390;2023-01-15T09:02:02;99299.56;;;4.35;100.00
36092;BME280;22147;52.388;13.390;2023-01-15T09:04:32;99303.91;;;4.36;100.00
36092;BME280;22147;52.388;13.390;2023-01-15T09:07:02;99313.13;;;4.31;100.00
36092;BME280;22147;52.388;13.390;2023-01-15T09:09:33;99320.84;;;4.12;100.00
36092;BME280;22147;52.388;13.390;2023-01-15T09:12:03;99327.31;;;4.07;100.00
36092;BME280;22147;52.388;13.390;2023-01-15T09:14:34;99333.13;;;4.14;100.00
36092;BME280;22147;52.388;13.390;2023-01-15T09:17:23;99317.00;;;4.21;100.00
36092;BME280;22147;52.388;13.390;2023-01-15T09:19:51;99318.94;;;4.21;100.00
36092;BME280;22147;52.388;13.390;2023-01-15T09:22:19;99321.19;;;4.19;100.00
36092;BME280;22147;52.388;13.390;2023-01-15T09:24:48;99324.91;;;4.23;100.00
36092;BME280;22147;52.388;13.390;2023-01-15T09:27:16;99331.25;;;4.23;100.00
36092;BME280;22147;52.388;13.390;2023-01-15T09:29:44;99335.31;;;4.35;100.00
36092;BME280;22147;52.388;13.390;2023-01-15T09:32:11;99329.50;;;4.36;100.00
36092;BME280;22147;52.388;13.390;2023-01-15T09:34:40;99326.88;;;4.31;100.00
36092;BME280;22147;52.388;13.390;2023-01-15T09:37:08;99340.63;;;4.40;100.00
36092;BME280;22147;52.388;13.390;2023-01-15T09:39:37;99341.31;;;4.45;100.00
36092;BME280;22147;52.388;13.390;2023-01-15T09:45:36;99343.75;;;4.64;100.00
36092;BME280;22147;52.388;13.390;2023-01-15T09:54:45;99341.00;;;4.64;100.00
36092;BME280;22147;52.388;13.390;2023-01-15T09:57:49;99342.16;;;4.81;100.00
36092;BME280;22147;52.388;13.390;2023-01-15T10:00:27;99340.53;;;4.88;100.00
36092;BME280;22147;52.388;13.390;2023-01-15T10:08:47;99344.72;;;5.12;100.00
36092;BME280;22147;52.388;13.390;2023-01-15T10:11:37;99344.41;;;5.14;100.00
36092;BME280;22147;52.388;13.390;2023-01-15T10:17:44;99336.13;;;5.31;100.00
36092;BME280;22147;52.388;13.390;2023-01-15T10:23:14;99328.34;;;5.33;100.00
36092;BME280;22147;52.388;13.390;2023-01-15T10:26:07;99328.38;;;5.16;100.00
36092;BME280;22147;52.388;13.390;2023-01-15T10:28:58;99326.09;;;5.26;100.00
36092;BME280;22147;52.388;13.390;2023-01-15T10:35:20;99331.75;;;5.30;100.00
36092;BME280;22147;52.388;13.390;2023-01-15T10:47:17;99323.66;;;5.34;100.00
36092;BME280;22147;52.388;13.390;2023-01-15T10:49:56;99333.97;;;5.54;100.00
36092;BME280;22147;52.388;13.390;2023-01-15T10:52:39;99337.06;;;5.35;100.00
36092;BME280;22147;52.388;13.390;2023-01-15T10:55:28;99334.66;;;5.42;100.00
36092;BME280;22147;52.388;13.390;2023-01-15T10:58:29;99332.06;;;5.37;100.00
36092;BME280;22147;52.388;13.390;2023-01-15T11:01:20;99345.47;;;5.56;100.00
36092;BME280;22147;52.388;13.390;2023-01-15T11:03:53;99351.94;;;5.60;100.00
36092;BME280;22147;52.388;13.390;2023-01-15T11:06:22;99337.53;;;5.55;100.00
36092;BME280;22147;52.388;13.390;2023-01-15T11:08:57;99351.13;;;5.60;100.00
36092;BME280;22147;52.388;13.390;2023-01-15T11:11:53;99354.16;;;5.76;100.00
36092;BME280;22147;52.388;13.390;2023-01-15T11:14:41;99347.56;;;5.59;100.00
36092;BME280;22147;52.388;13.390;2023-01-15T11:17:40;99348.19;;;5.74;100.00
36092;BME280;22147;52.388;13.390;2023-01-15T11:20:32;99353.03;;;5.77;100.00
36092;BME280;22147;52.388;13.390;2023-01-15T11:23:19;99345.25;;;5.79;100.00
36092;BME280;22147;52.388;13.390;2023-01-15T11:25:57;99345.78;;;5.63;100.00
36092;BME280;22147;52.388;13.390;2023-01-15T11:28:39;99351.59;;;5.62;100.00
36092;BME280;22147;52.388;13.390;2023-01-15T11:31:16;99356.44;;;5.65;100.00
36092;BME280;22147;52.388;13.390;2023-01-15T11:34:00;99346.41;;;5.60;100.00
36092;BME280;22147;52.388;13.390;2023-01-15T11:36:33;99352.25;;;5.67;100.00
36092;BME280;22147;52.388;13.390;2023-01-15T11:39:03;99341.22;;;5.59;100.00
36092;BME280;22147;52.388;13.390;2023-01-15T11:41:34;99344.91;;;5.80;100.00
36092;BME280;22147;52.388;13.390;2023-01-15T11:44:23;99344.44;;;5.78;100.00
36092;BME280;22147;52.388;13.390;2023-01-15T11:47:16;99344.13;;;5.71;100.00
36092;BME280;22147;52.388;13.390;2023-01-15T11:50:17;99339.72;;;5.79;100.00
36092;BME280;22147;52.388;13.390;2023-01-15T11:53:26;99336.69;;;5.71;100.00
36092;BME280;22147;52.388;13.390;2023-01-15T11:56:08;99328.91;;;5.65;100.00
36092;BME280;22147;52.388;13.390;2023-01-15T11:58:49;99335.56;;;5.64;100.00
36092;BME280;22147;52.388;13.390;2023-01-15T12:01:31;99338.00;;;5.65;100.00
36092;BME280;22147;52.388;13.390;2023-01-15T12:04:22;99329.69;;;5.74;100.00
36092;BME280;22147;52.388;13.390;2023-01-15T12:06:58;99337.34;;;5.60;100.00
36092;BME280;22147;52.388;13.390;2023-01-15T12:09:47;99330.53;;;5.66;100.00
36092;BME280;22147;52.388;13.390;2023-01-15T12:27:50;99343.44;;;5.83;100.00
36092;BME280;22147;52.388;13.390;2023-01-15T12:33:20;99341.84;;;5.73;100.00
36092;BME280;22147;52.388;13.390;2023-01-15T12:36:37;99338.00;;;5.65;100.00
36092;BME280;22147;52.388;13.390;2023-01-15T12:39:22;99335.34;;;5.78;100.00
36092;BME280;22147;52.388;13.390;2023-01-15T12:42:04;99334.97;;;5.97;100.00
36092;BME280;22147;52.388;13.390;2023-01-15T12:45:08;99322.03;;;5.88;100.00
36092;BME280;22147;52.388;13.390;2023-01-15T12:47:57;99331.28;;;5.84;100.00
36092;BME280;22147;52.388;13.390;2023-01-15T12:50:37;99326.91;;;5.83;100.00
36092;BME280;22147;52.388;13.390;2023-01-15T12:53:36;99321.31;;;5.62;100.00
36092;BME280;22147;52.388;13.390;2023-01-15T12:57:07;99316.75;;;5.66;100.00
36092;BME280;22147;52.388;13.390;2023-01-15T13:00:12;99321.16;;;5.58;100.00
36092;BME280;22147;52.388;13.390;2023-01-15T13:05:51;99323.41;;;5.65;100.00
36092;BME280;22147;52.388;13.390;2023-01-15T13:08:40;99324.72;;;5.67;100.00
36092;BME280;22147;52.388;13.390;2023-01-15T13:11:32;99320.19;;;5.54;100.00
36092;BME280;22147;52.388;13.390;2023-01-15T13:14:02;99312.75;;;5.55;100.00
36092;BME280;22147;52.388;13.390;2023-01-15T13:20:46;99317.88;;;5.65;100.00
36092;BME280;22147;52.388;13.390;2023-01-15T13:23:52;99312.53;;;5.68;100.00
36092;BME280;22147;52.388;13.390;2023-01-15T13:26:59;99339.16;;;5.56;100.00
36092;BME280;22147;52.388;13.390;2023-01-15T13:33:42;99337.06;;;5.35;100.00
36092;BME280;22147;52.388;13.390;2023-01-15T13:36:39;99325.13;;;5.40;100.00
36092;BME280;22147;52.388;13.390;2023-01-15T13:39:22;99331.56;;;5.35;100.00
36092;BME280;22147;52.388;13.390;2023-01-15T13:41:56;99331.09;;;5.33;100.00
36092;BME280;22147;52.388;13.390;2023-01-15T13:44:51;99323.63;;;5.42;100.00
36092;BME280;22147;52.388;13.390;2023-01-15T13:47:29;99314.91;;;5.40;100.00
36092;BME280;22147;52.388;13.390;2023-01-15T13:50:29;99313.91;;;5.45;100.00
36092;BME280;22147;52.388;13.390;2023-01-15T13:53:05;99331.25;;;5.37;100.00
36092;BME280;22147;52.388;13.390;2023-01-15T13:55:53;99339.06;;;5.17;100.00
36092;BME280;22147;52.388;13.390;2023-01-15T13:58:32;99344.72;;;5.12;100.00
36092;BME280;22147;52.388;13.390;2023-01-15T14:04:16;99333.34;;;5.31;100.00
36092;BME280;22147;52.388;13.390;2023-01-15T14:06:50;99338.25;;;5.17;100.00
36092;BME280;22147;52.388;13.390;2023-01-15T14:12:12;99343.75;;;5.34;100.00
36092;BME280;22147;52.388;13.390;2023-01-15T14:18:58;99341.34;;;5.06;100.00
36092;BME280;22147;52.388;13.390;2023-01-15T14:25:47;99364.00;;;4.86;100.00
36092;BME280;22147;52.388;13.390;2023-01-15T14:31:48;99382.75;;;4.84;100.00
36092;BME280;22147;52.388;13.390;2023-01-15T14:34:30;99390.69;;;4.85;100.00
36092;BME280;22147;52.388;13.390;2023-01-15T14:37:46;99398.59;;;4.69;100.00
36092;BME280;22147;52.388;13.390;2023-01-15T14:40:28;99408.97;;;4.73;100.00
36092;BME280;22147;52.388;13.390;2023-01-15T14:43:13;99403.16;;;4.74;100.00
36092;BME280;22147;52.388;13.390;2023-01-15T14:45:50;99405.56;;;4.67;100.00
36092;BME280;22147;52.388;13.390;2023-01-15T14:51:15;99417.19;;;4.55;100.00
36092;BME280;22147;52.388;13.390;2023-01-15T14:53:57;99428.63;;;4.48;100.00
36092;BME280;22147;52.388;13.390;2023-01-15T14:56:43;99430.75;;;4.52;100.00
36092;BME280;22147;52.388;13.390;2023-01-15T14:59:16;99446.59;;;4.55;100.00
36092;BME280;22147;52.388;13.390;2023-01-15T15:02:00;99455.34;;;4.57;100.00
36092;BME280;22147;52.388;13.390;2023-01-15T15:04:55;99454.34;;;4.53;100.00
36092;BME280;22147;52.388;13.390;2023-01-15T15:07:43;99455.03;;;4.58;100.00
36092;BME280;22147;52.388;13.390;2023-01-15T15:10:38;99450.78;;;4.43;100.00
36092;BME280;22147;52.388;13.390;2023-01-15T15:13:43;99447.63;;;4.27;100.00
36092;BME280;22147;52.388;13.390;2023-01-15T15:16:25;99453.28;;;4.22;100.00
36092;BME280;22147;52.388;13.390;2023-01-15T15:19:47;99439.84;;;4.21;100.00
36092;BME280;22147;52.388;13.390;2023-01-15T15:22:12;99442.09;;;4.19;100.00
36092;BME280;22147;52.388;13.390;2023-01-15T15:24:53;99446.69;;;4.23;100.00
36092;BME280;22147;52.388;13.390;2023-01-15T15:27:24;99444.72;;;4.24;100.00
36092;BME280;22147;52.388;13.390;2023-01-15T15:30:05;99441.31;;;4.18;100.00